Goodman, MS (39079)

9:25 AM CDT on September 01, 2015 (GMT -0500)
EOC | | Change Station
CLOSE
Current Station
Personal Weather Station
Location: Kosciusko, MS
Elevation: 459 ft
Nearby Weather Stations

Elev 459 ft 33.06 °N, 89.59 °W | Updated 47 seconds ago

Clear
Clear
81.0 °F
Feels Like 85 °F
N
0.0
Wind Variable Wind from ESE
Gusts 0.0 mph

Today
High -- | Low -- °F
--% Chance of Precip.
Yesterday
High -- | Low -- °F
Precip. -- in
6:34 AM 7:24 PM
Waning Gibbous, 88% visible
Pressure 30.08 in
Visibility 10.0 miles
Clouds Clear
Heat Index 85 °F
Dew Point 71 °F
Humidity 71%
Rainfall 0.00 in
Snow Depth Not available.
UV 3 out of 12
Pollen 9.30 out of 12
Air Quality Not available.
Flu Activity Not available.
METAR KGWO 011353Z AUTO 08003KT 10SM CLR 26/20 A3008 RMK AO2 SLP185 T02610200
Pressure 30.08 in
Visibility 10.0 miles
Clouds Clear
Heat Index 85 °F
Dew Point 71 °F
Humidity 71%
Rainfall 0.00 in
Snow Depth Not available.
UV 3 out of 12
Pollen 9.30 out of 12
Air Quality Not available.
Flu Activity Not available.
METAR KGWO 011353Z AUTO 08003KT 10SM CLR 26/20 A3008 RMK AO2 SLP185 T02610200

10-Day Weather Forecast

×

Almanac

Astronomy

Sep. 01, 2015 Rise Set
Actual Time
Civil Twilight
Nautical Twilight
Astronomical Twilight
Moon
Length of Visible Light
Length of Day
Tomorrow will be .
, % of the Moon is Illuminated

Today's Extremes

State Highs State Lows

Community

WunderPhotos

Upload Photos

1,851,512 photos uploaded!

WunderBlogs® & News

Nearby

Air Quality

  Air Quality AQ Index Pollutant
Not available.

Snow Depth

Station Depth Elevation

Earthquake Activity

City Distance Mag. Time & Date
Minimum magnitude displayed is 2.5.

Coastal Water Temperatures

Place Temperature

Stations

Nearby Weather Stations

Station Location Temp. Windchill Dew Point Humidity Wind Precip. Elev Updated Type